Squad war stats
Faction Empire
Rank 62
TrueSkill™ 29,240
Reputation 11,541
Wars 117
Wins 60
Draws 23
Losses 34
Uplinks captured 4,708
Uplinks saved 1,657
Last updated 27 minutes ago
Mu 29.275
Sigma 0.010
Last War today
Current War REBELDES4ever
Battle history
Date Opp. skill Opponent Result Score Opp. score Skill result Skill before Mu before Sigma before
2019-02-23 97% REBELDES4ever WIN 45 41 0 29240 29.275 0.010
2019-02-19 94% Leeroy_Jenkins LOSS 44 45 0 29240 29.275 0.010
2019-02-16 94% ATTACKDAWGS WIN 45 5 0 29240 29.275 0.010
2019-02-12 80% Warin WIN 45 20 0 29240 29.275 0.010
2019-02-09 98% Han's-watchman WIN 45 42 0 29240 29.275 0.010
2019-02-06 97% _UnNamed_ DRAW 45 45 0 29240 29.275 0.010
2019-02-02 101% TeamGibson LOSS 33 43 0 29240 29.275 0.010
2019-01-29 93% killthesith WIN 45 4 0 29240 29.275 0.010
2019-01-26 101% TeamGibson DRAW 45 45 0 29240 29.275 0.010
2019-01-22 97% Force_Fellowship LOSS 43 45 0 29240 29.275 0.010
2019-01-19 92% REBELDES4ever DRAW 45 45 0 29240 29.275 0.010
2019-01-15 100% SkywalkersPride DRAW 45 45 0 29240 29.275 0.010
2019-01-12 103% JediTempleBlue DRAW 44 44 +918 28322 28.767 0.127
2019-01-08 100% SpaceBarons DRAW 45 45 0 28322 28.767 0.127
2019-01-05 100% JDGreenMachines WIN 45 17 +1 28321 28.767 0.127
2019-01-01 90% New.Rebel.Order WIN 45 30 +3 28318 28.765 0.128
2018-12-29 93% BlackWingRage DRAW 45 45 0 28318 28.765 0.128
2018-12-22 103% BrasilBrasukas LOSS 41 45 0 28318 28.765 0.128
2018-12-18 103% Iron_Rebels_Alph LOSS 43 45 0 28318 28.765 0.128
2018-12-15 68% BATTLEFIELD_99 WIN 45 12 +2 28316 28.764 0.128
2018-12-08 100% FriskyEwoks DRAW 45 45 0 28316 28.764 0.128
2018-12-05 103% TeamGibson LOSS 24 45 +3 28313 28.765 0.129
2018-12-01 96% Itadreams DRAW 45 45 0 28313 28.765 0.129
2018-11-21 101% Active_Group WIN 45 7 +16 28297 28.762 0.133
2018-11-17 100% ReBeL WIN 45 15 0 28297 28.762 0.133
2018-11-14 97% FenixSqArgentina WIN 45 27 +53 28244 28.727 0.138
2018-11-10 99% RebelRascals WIN 42 7 0 28244 28.727 0.138
2018-11-07 101% JEDI.NIGHTS WIN 45 44 +107 28137 28.700 0.161
2018-11-02 68% SKULL_SQUADRON DRAW 45 45 0 28137 28.700 0.161
2018-10-26 99% Rogues-One LOSS 37 44 -1 28628 28.701 0.021
2018-10-23 107% _NAMELESS_ LOSS 37 45 0 28628 28.701 0.021
2018-10-20 99% China-义军活跃斗士 WIN 45 44 0 28628 28.701 0.021
2018-10-16 95% battlefrontwindu WIN 45 14 0 28628 28.701 0.021
2018-10-12 99% Light-This-Force WIN 35 10 0 28628 28.701 0.021
2018-10-09 99% Havoc_RAJC DRAW 45 45 0 28628 28.701 0.021
2018-10-05 94% Rebeldes_BR_2.0 DRAW 45 45 0 28628 28.701 0.021
2018-10-02 99% MadDogz WIN 45 0 0 28628 28.701 0.021
2018-09-28 104% PartylikeChewy LOSS 36 45 0 28628 28.701 0.021
2018-09-25 92% FlyingRebellion WIN 45 22 +1 28627 28.701 0.021
2018-09-22 101% RUCOSJEDI WIN 45 43 +377 28250 28.446 0.056
2018-09-18 100% DrtyR10Rebs WIN 40 6 +3 28247 28.445 0.057
2018-09-14 100% BrasiL WIN 45 28 +14 28233 28.442 0.060
2018-09-11 94% BattleRaxBrigade WIN 45 6 +2 28231 28.441 0.060
2018-09-07 102% Han's-watchman LOSS 25 45 0 28231 28.441 0.060
2018-09-05 94% BattleRaxBrigade WIN 45 2 +2 28229 28.440 0.060
2018-08-31 104% EscuadrónAzul LOSS 32 45 0 28229 28.440 0.060
2018-08-28 69% Lions-Battalion WIN 45 25 +1 28228 28.439 0.060
2018-08-24 101% AustralianDigger LOSS 29 38 -41 28269 28.934 0.190
2018-08-21 100% Ackbar's_Fist DRAW 45 45 0 28269 28.934 0.190
2018-08-17 85% BRASIL(REBELDES) WIN 43 26 +21 28248 28.916 0.191
2018-08-14 101% BattleRax WIN 35 31 +52 28196 28.905 0.203
2018-08-10 101% Ackbar's_Fist WIN 45 38 +59 28137 28.893 0.216
2018-08-07 105% Wraith][Squadron DRAW 45 45 0 28137 28.893 0.216
2018-08-05 104% RogueAlliance LOSS 13 42 +38 28099 28.908 0.231
2018-08-02 102% HowlingWookie's DRAW 45 45 0 28099 28.908 0.231
2018-07-31 102% Rogue_Elite WIN 45 19 +155 27944 28.869 0.264
2018-07-28 108% Spanish_Rebels_2 LOSS 13 45 0 27944 28.869 0.264
2018-07-26 105% DejavuLegion LOSS 31 45 +51 27893 28.889 0.285
2018-07-24 102% Reb.Elite WIN 45 6 +122 27771 28.861 0.311
2018-07-12 103% Force_Fellowship DRAW 45 45 0 28541 28.861 0.091
2018-07-10 104% PartylikePorkins LOSS 43 45 0 28541 28.861 0.091
2018-07-05 101% Ackbar's_Revenge LOSS 44 45 0 28541 28.862 0.092
2018-07-03 102% Havoc_RAJC DRAW 45 45 0 28541 28.862 0.092
2018-07-01 101% Ackbar's_Revenge LOSS 39 40 0 28541 28.862 0.092
2018-06-28 104% PartylikePorkins LOSS 41 45 0 28541 28.862 0.092
2018-06-26 96% Rebelles_Gaulois DRAW 45 45 0 28541 28.862 0.092
2018-06-24 104% Jedi-Master's LOSS 13 44 0 28541 28.862 0.092
2018-06-22 102% BlackWingRising LOSS 19 41 0 28541 28.862 0.092
2018-06-20 102% JEDIKNIGHT LOSS 24 44 0 28541 28.862 0.092
2018-06-17 102% KenobiForce DRAW 45 45 0 28541 28.862 0.092
2018-06-15 80% JetPackBanthas DRAW 45 45 0 28541 28.862 0.092
2018-06-13 99% DETROIT♤players LOSS 33 45 0 28541 28.863 0.092
2018-06-08 103% Kenobi-Academy LOSS 12 45 0 28541 28.863 0.092
2018-06-06 100% FinnLuke WIN 45 9 0 28541 28.863 0.092
2018-06-03 99% Rebel'Command WIN 45 14 +2 28539 28.863 0.092
2018-06-01 100% Quebec_rebelle_a WIN 45 44 0 28539 28.863 0.092
2018-05-29 100% RIPSolo WIN 38 21 0 28539 28.863 0.092
2018-05-27 102% Jedi_Remnant DRAW 45 45 0 28539 28.863 0.092
2018-05-24 103% Blackwingrisque LOSS 27 42 0 28539 28.863 0.092
2018-05-22 104% OmegaBrotherhood LOSS 23 41 0 28539 28.863 0.092
2018-05-20 96% Ackbar'sAvengers WIN 45 27 0 28539 28.863 0.092
2018-05-18 92% BlueSaberJedi DRAW 45 45 0 28539 28.863 0.092
2018-05-16 100% SunDevilSquadron WIN 45 0 +1 28538 28.862 0.093
2018-05-13 99% goodset2 WIN 44 14 0 28538 28.862 0.093
2018-05-11 102% Havoc_Sentinels LOSS 44 45 0 28538 28.862 0.093
2018-05-08 101% Rebelsyiir LOSS 37 45 +2 28536 28.863 0.094
2018-05-05 97% Angband WIN 45 8 +5 28531 28.862 0.094
2018-05-03 100% BigLeagueChewie LOSS 26 44 0 28531 28.864 0.095
2018-05-01 104% W.A.R.Jedi LOSS 34 45 0 28531 28.864 0.095
2018-04-28 100% Jesus-saves WIN 45 33 0 28531 28.864 0.095
2018-04-26 98% REBEL_MASTERS WIN 45 14 +1 28530 28.864 0.095
2018-04-24 104% FalloftheEmpire DRAW 45 45 0 28530 28.864 0.095
2018-04-22 99% Ultimate-Rebels WIN 44 3 0 28530 28.864 0.095
2018-04-20 102% Jedi-Warlords LOSS 15 45 0 28530 28.864 0.095
2018-04-17 97% Echo-Chaos WIN 43 30 +33 28497 28.837 0.097
2018-04-15 86% force:of:nature WIN 44 9 +6 28491 28.832 0.097
2018-04-13 100% nofreeloaders WIN 45 15 +1 28490 28.832 0.098
2018-04-10 100% LikeaBoett WIN 41 6 0 28490 28.832 0.098
2018-04-08 100% Savages WIN 41 16 0 28490 28.832 0.098
2018-04-06 100% Usmc.jedi WIN 45 5 0 28490 28.832 0.098
2018-04-03 100% Usmc.jedi WIN 45 18 0 28490 28.832 0.098
2018-04-01 100% MegaDroids WIN 45 34 +1 28489 28.832 0.098
2018-03-30 100% Canada'sMinions WIN 45 5 0 28489 28.831 0.098
2018-03-27 98% Rebel)(Masters WIN 45 7 +2 28487 28.831 0.098
2018-03-24 99% SX-ELITE WIN 45 4 0 28487 28.831 0.098
2018-03-22 101% Jediforces WIN 42 10 +191 28296 28.765 0.134
2018-03-20 95% TythonsJedi WIN 42 24 0 28296 28.765 0.134
2018-03-17 101% Imperial-Slammer WIN 40 8 +21 28275 28.761 0.139
2018-03-15 101% donators8 WIN 45 18 +67 28208 28.745 0.153
2018-03-13 103% 805LEGIONFORCE WIN 36 22 +553 27655 28.544 0.254
2018-03-11 104% Jediforces LOSS 38 39 +200 27455 29.165 0.489
2018-03-09 108% Fire_and_Ice LOSS 38 45 +397 27058 29.733 0.764
2018-03-07 102% ChristiansUnite WIN 36 22 +451 26607 29.616 0.860
2018-03-02 126% ObiTwo WIN 45 12 +3,937 22670 28.095 1.550
2018-02-27 138% Havoc_RAJC LOSS 30 45 +1,137 21533 34.754 3.777
2018-02-24 143% Light-this-Joint WIN 41 26 +3,247 18286 33.895 4.460
2018-02-22 2724400% KandorRising WIN 41 13 +18,286 0 25.000 8.333
*Note: Wars from before June 22nd 2016 are not included.